createdAt,value
2023-03-25T00:04:21.704Z,95.8
2023-03-25T00:09:21.635Z,95.6
2023-03-25T00:14:21.644Z,95.2
2023-03-25T00:19:21.634Z,94.4
2023-03-25T00:24:21.629Z,94.4
2023-03-25T00:29:21.636Z,94.2
2023-03-25T00:34:21.608Z,94.1
2023-03-25T00:39:21.600Z,93.6
2023-03-25T00:44:21.623Z,93.8
2023-03-25T00:49:21.603Z,93.9
2023-03-25T00:54:21.654Z,93.7
2023-03-25T00:59:21.602Z,94
2023-03-25T01:04:21.937Z,93.7
2023-03-25T01:09:21.610Z,93.5
2023-03-25T01:14:21.624Z,93.7
2023-03-25T01:19:21.615Z,93.5
2023-03-25T01:24:21.577Z,94
2023-03-25T01:29:21.592Z,94.1
2023-03-25T01:34:21.628Z,94.5
2023-03-25T01:39:21.570Z,94.8
2023-03-25T01:44:21.560Z,95
2023-03-25T01:49:21.589Z,95
2023-03-25T01:54:21.570Z,94.3
2023-03-25T01:59:21.543Z,93.5
2023-03-25T02:04:21.553Z,92.9
2023-03-25T02:09:21.539Z,92.2
2023-03-25T02:14:21.531Z,91.7
2023-03-25T02:19:21.547Z,90.5
2023-03-25T02:24:21.537Z,90.1
2023-03-25T02:29:21.536Z,90.3
2023-03-25T02:34:21.554Z,91
2023-03-25T02:39:21.517Z,91.1
2023-03-25T02:44:21.543Z,91.4
2023-03-25T02:49:21.491Z,91
2023-03-25T02:54:21.483Z,90.7
2023-03-25T02:59:21.517Z,90.1
2023-03-25T03:04:21.514Z,88.6
2023-03-25T03:09:21.495Z,88.1
2023-03-25T03:14:21.504Z,88.4
2023-03-25T03:19:21.487Z,87.9
2023-03-25T03:24:21.483Z,87.4
2023-03-25T03:29:21.498Z,87.9
2023-03-25T03:34:21.474Z,88.4
2023-03-25T03:39:21.473Z,87.7
2023-03-25T03:44:21.466Z,87.1
2023-03-25T03:49:21.470Z,86.6
2023-03-25T03:54:21.441Z,86.7
2023-03-25T03:59:21.446Z,86.7
2023-03-25T04:04:21.446Z,86.6
2023-03-25T04:09:21.445Z,86.4
2023-03-25T04:14:21.471Z,86.7
2023-03-25T04:19:21.448Z,86.3
2023-03-25T04:24:21.433Z,87.4
2023-03-25T04:29:21.460Z,87.5
2023-03-25T04:39:21.424Z,86.9
2023-03-25T04:44:21.445Z,86.9
2023-03-25T04:49:21.530Z,86.6
2023-03-25T04:54:21.410Z,86.6
2023-03-25T04:59:21.451Z,86.3
2023-03-25T05:04:21.518Z,86.3
2023-03-25T05:09:21.409Z,85.9
2023-03-25T05:14:21.381Z,85.5
2023-03-25T05:19:21.384Z,84.7
2023-03-25T05:24:21.387Z,84.4
2023-03-25T05:29:21.388Z,83.7
2023-03-25T05:34:21.380Z,83.2
2023-03-25T05:39:21.359Z,83
2023-03-25T05:44:21.364Z,82.6
2023-03-25T05:49:21.407Z,83.1
2023-03-25T05:54:21.380Z,82.4
2023-03-25T05:59:21.348Z,82.5
2023-03-25T06:04:21.438Z,81.6
2023-03-25T06:09:21.321Z,81
2023-03-25T06:14:21.327Z,79.7
2023-03-25T06:19:21.338Z,80.5
2023-03-25T06:24:21.338Z,75.6
2023-03-25T06:29:21.316Z,73.8
2023-03-25T06:34:22.597Z,75
2023-03-25T06:39:21.320Z,74
2023-03-25T06:44:24.181Z,74.5
2023-03-25T06:49:21.334Z,73.1
2023-03-25T06:54:21.306Z,69.7
2023-03-25T06:59:21.288Z,67
2023-03-25T07:04:21.322Z,67.2
2023-03-25T07:09:21.337Z,66.8
2023-03-25T07:14:21.284Z,67.1
2023-03-25T07:19:21.279Z,68.5
2023-03-25T07:24:21.282Z,68.2
2023-03-25T07:29:21.261Z,68.6
2023-03-25T07:34:21.290Z,67.6
2023-03-25T07:39:21.271Z,68.9
2023-03-25T07:44:21.258Z,68.8
2023-03-25T07:49:21.278Z,70.2
2023-03-25T07:54:21.261Z,79.7
2023-03-25T07:59:21.222Z,75.9
2023-03-25T08:04:21.237Z,71.7
2023-03-25T08:09:21.233Z,68.7
2023-03-25T08:14:21.218Z,69.1
2023-03-25T08:19:21.246Z,65.5
2023-03-25T08:24:21.217Z,64.6
2023-03-25T08:29:21.200Z,63.6
2023-03-25T08:34:21.220Z,66.3
2023-03-25T08:39:21.193Z,64.9
2023-03-25T08:44:21.180Z,61.9
2023-03-25T08:49:21.200Z,63.3
2023-03-25T08:54:21.282Z,59.5
2023-03-25T08:59:21.177Z,61.5
2023-03-25T09:04:21.160Z,61.2
2023-03-25T09:09:21.186Z,61.8
2023-03-25T09:14:21.148Z,62.6
2023-03-25T09:19:21.131Z,61
2023-03-25T09:24:21.145Z,61.2
2023-03-25T09:29:21.137Z,59.8
2023-03-25T09:34:21.109Z,62.6
2023-03-25T09:39:21.117Z,64.8
2023-03-25T09:44:21.121Z,66.4
2023-03-25T09:49:21.099Z,68.8
2023-03-25T09:54:21.104Z,70.8
2023-03-25T09:59:21.127Z,72.7
2023-03-25T10:04:21.101Z,74.3
2023-03-25T10:09:21.091Z,71.3
2023-03-25T10:14:21.085Z,68.8
2023-03-25T10:19:21.086Z,66.3
2023-03-25T10:24:21.100Z,66
2023-03-25T10:29:21.089Z,63.4
2023-03-25T10:34:21.058Z,60.7
2023-03-25T10:39:21.059Z,60.3
2023-03-25T10:44:21.061Z,58.7
2023-03-25T10:49:21.080Z,59.8
2023-03-25T10:54:21.026Z,58.4
2023-03-25T10:59:21.032Z,58.9
2023-03-25T11:04:21.058Z,59
2023-03-25T11:09:21.188Z,58.7
2023-03-25T11:14:21.026Z,57
2023-03-25T11:19:20.995Z,56.6
2023-03-25T11:24:20.994Z,58.3
2023-03-25T11:29:21.015Z,59.6
2023-03-25T11:34:21.006Z,60.3
2023-03-25T11:39:21.369Z,60.5
2023-03-25T11:44:21.000Z,59.7
2023-03-25T11:49:20.978Z,56.9
2023-03-25T11:54:20.971Z,56.8
2023-03-25T11:59:20.961Z,57.7
2023-03-25T12:04:20.951Z,57.8
2023-03-25T12:09:20.973Z,57.8
2023-03-25T12:14:20.941Z,57.6
2023-03-25T12:19:20.942Z,56.7
2023-03-25T12:24:20.932Z,56.5
2023-03-25T12:29:20.922Z,57.8
2023-03-25T12:34:20.958Z,59.4
2023-03-25T12:39:26.956Z,57.1
2023-03-25T12:44:20.915Z,58.4
2023-03-25T12:49:20.918Z,57.9
2023-03-25T12:54:20.904Z,58.4
2023-03-25T12:59:20.887Z,58.6
2023-03-25T13:04:20.902Z,57.8
2023-03-25T13:09:20.891Z,57.3
2023-03-25T13:14:20.871Z,56.9
2023-03-25T13:19:20.867Z,57.5
2023-03-25T13:24:20.871Z,57.2
2023-03-25T13:29:20.876Z,57.5
2023-03-25T13:34:25.263Z,56.8
2023-03-25T13:39:20.834Z,59.1
2023-03-25T13:44:20.860Z,58.5
2023-03-25T13:49:20.849Z,60.2
2023-03-25T13:54:22.979Z,59.4
2023-03-25T13:59:20.848Z,60.1
2023-03-25T14:04:20.823Z,60.2
2023-03-25T14:09:20.822Z,61.3
2023-03-25T14:14:20.817Z,63.5
2023-03-25T14:19:20.795Z,60.9
2023-03-25T14:24:20.811Z,63.2
2023-03-25T14:29:20.801Z,61.4
2023-03-25T14:34:20.806Z,62.6
2023-03-25T14:39:20.796Z,64.9
2023-03-25T14:44:20.797Z,63.7
2023-03-25T14:49:20.789Z,62.6
2023-03-25T14:54:20.774Z,61.4
2023-03-25T14:59:20.780Z,62.8
2023-03-25T15:04:20.750Z,61.4
2023-03-25T15:09:20.750Z,60.8
2023-03-25T15:14:20.766Z,62.7
2023-03-25T15:19:20.815Z,60.7
2023-03-25T15:24:20.738Z,61.6
2023-03-25T15:29:20.742Z,60.8
2023-03-25T15:34:22.853Z,60.9
2023-03-25T15:39:20.715Z,63.2
2023-03-25T15:44:23.056Z,60.5
2023-03-25T15:49:20.809Z,60.5
2023-03-25T15:54:20.728Z,61.4
2023-03-25T15:59:20.731Z,62.1
2023-03-25T16:04:20.696Z,65.6
2023-03-25T16:09:20.706Z,65
2023-03-25T16:14:20.682Z,66.7
2023-03-25T16:19:20.687Z,64.8
2023-03-25T16:24:20.735Z,64.9
2023-03-25T16:29:20.682Z,65.4
2023-03-25T16:34:20.693Z,65.1
2023-03-25T16:39:20.650Z,63.9
2023-03-25T16:44:20.645Z,64.3
2023-03-25T16:49:20.657Z,65.8
2023-03-25T16:54:20.658Z,67
2023-03-25T16:59:20.628Z,67.4
2023-03-25T17:04:20.651Z,68.1
2023-03-25T17:09:20.642Z,67.4
2023-03-25T17:14:20.631Z,67.5
2023-03-25T17:19:20.642Z,67.8
2023-03-25T17:24:21.245Z,68
2023-03-25T17:29:20.632Z,67.5
2023-03-25T17:34:20.608Z,68.4
2023-03-25T17:39:20.616Z,71.4
2023-03-25T17:44:20.587Z,71.3
2023-03-25T17:49:20.583Z,70.8
2023-03-25T17:54:20.587Z,71.1
2023-03-25T17:59:20.589Z,70.8
2023-03-25T18:04:20.580Z,71.6
2023-03-25T18:09:20.592Z,72
2023-03-25T18:14:20.554Z,72
2023-03-25T18:19:20.573Z,72.3
2023-03-25T18:24:20.544Z,72.9
2023-03-25T18:29:20.564Z,73.6
2023-03-25T18:34:20.555Z,73.9
2023-03-25T18:39:20.544Z,73.6
2023-03-25T18:44:20.557Z,73.7
2023-03-25T18:49:20.538Z,74.3
2023-03-25T18:54:20.539Z,74.6
2023-03-25T18:59:20.522Z,74.8
2023-03-25T19:04:20.513Z,74.9
2023-03-25T19:09:22.279Z,75.2
2023-03-25T19:14:20.500Z,75.9
2023-03-25T19:19:20.514Z,76.6
2023-03-25T19:24:20.507Z,77
2023-03-25T19:29:20.513Z,77.3
2023-03-25T19:34:20.488Z,77.8
2023-03-25T19:39:20.493Z,78.1
2023-03-25T19:44:20.500Z,78.2
2023-03-25T19:49:29.163Z,78.1
2023-03-25T19:54:22.364Z,78.7
2023-03-25T19:59:20.495Z,78.3
2023-03-25T20:04:20.458Z,78.5
2023-03-25T20:09:20.466Z,78.7
2023-03-25T20:14:20.494Z,79.1
2023-03-25T20:19:20.465Z,79.5
2023-03-25T20:24:20.453Z,79.8
2023-03-25T20:29:20.484Z,80.1
2023-03-25T20:34:20.429Z,80.3
2023-03-25T20:39:20.434Z,80.2
2023-03-25T20:44:20.469Z,80.3
2023-03-25T20:49:20.457Z,80.7
2023-03-25T20:54:20.429Z,80.6
2023-03-25T20:59:20.446Z,80.8
2023-03-25T21:04:20.422Z,80.8
2023-03-25T21:09:20.406Z,81.3
2023-03-25T21:14:20.424Z,81.4
2023-03-25T21:19:20.379Z,81.3
2023-03-25T21:24:20.400Z,81.4
2023-03-25T21:29:20.436Z,81.5
2023-03-25T21:34:20.402Z,81.4
2023-03-25T21:39:20.403Z,81.2
2023-03-25T21:44:20.394Z,81.3
2023-03-25T21:49:20.373Z,81.1
2023-03-25T21:54:20.384Z,81.2
2023-03-25T21:59:20.374Z,81.4
2023-03-25T22:04:20.338Z,81.4
2023-03-25T22:09:20.354Z,81.6
2023-03-25T22:14:20.381Z,81.3
2023-03-25T22:19:21.013Z,81.5
2023-03-25T22:24:20.377Z,81.5
2023-03-25T22:29:20.339Z,81.7
2023-03-25T22:34:20.322Z,81.3
2023-03-25T22:39:20.328Z,81.3
2023-03-25T22:44:20.342Z,81.1
2023-03-25T22:49:20.326Z,81.1
2023-03-25T22:54:20.321Z,81.3
2023-03-25T22:59:20.362Z,81.4
2023-03-25T23:04:20.348Z,81.1
2023-03-25T23:09:20.302Z,80.7
2023-03-25T23:14:20.302Z,80.7
2023-03-25T23:19:20.293Z,80.9
2023-03-25T23:24:20.301Z,81.2
2023-03-25T23:29:20.605Z,81.5
2023-03-25T23:34:20.299Z,81.6
2023-03-25T23:39:20.285Z,81.9
2023-03-25T23:44:20.440Z,81.5
2023-03-25T23:49:20.387Z,81.3
2023-03-25T23:54:20.263Z,81.6
2023-03-25T23:59:20.282Z,81.9
